createdAt,value
2022-12-11T00:00:31.706Z,15.57
2022-12-11T00:02:59.439Z,12.35
2022-12-11T00:05:27.155Z,13.02
2022-12-11T00:07:54.979Z,15.25
2022-12-11T00:10:22.768Z,14.50
2022-12-11T00:12:50.392Z,13.57
2022-12-11T00:15:18.187Z,12.40
2022-12-11T00:17:45.849Z,11.45
2022-12-11T00:20:13.582Z,11.25
2022-12-11T00:22:41.293Z,14.55
2022-12-11T00:25:10.037Z,12.57
2022-12-11T00:27:37.921Z,14.40
2022-12-11T00:30:06.535Z,13.90
2022-12-11T00:32:37.553Z,15.27
2022-12-11T00:35:05.833Z,14.55
2022-12-11T00:37:33.679Z,12.48
2022-12-11T00:40:01.424Z,14.65
2022-12-11T00:42:29.110Z,14.73
2022-12-11T00:44:57.512Z,16.45
2022-12-11T00:47:25.245Z,13.65
2022-12-11T00:49:53.181Z,13.60
2022-12-11T00:52:20.889Z,12.10
2022-12-11T00:54:48.562Z,13.98
2022-12-11T00:57:16.178Z,12.77
2022-12-11T00:59:43.851Z,11.18
2022-12-11T01:02:11.502Z,14.07
2022-12-11T01:04:39.348Z,10.60
2022-12-11T01:07:07.045Z,10.77
2022-12-11T01:09:53.031Z,12.73
2022-12-11T01:12:20.745Z,12.77
2022-12-11T01:14:48.393Z,11.38
2022-12-11T01:17:16.585Z,9.65
2022-12-11T01:19:44.250Z,11.75
2022-12-11T01:22:12.686Z,10.43
2022-12-11T01:24:40.384Z,10.55
2022-12-11T01:27:08.010Z,11.10
2022-12-11T01:29:35.602Z,10.05
2022-12-11T01:32:03.288Z,9.95
2022-12-11T01:34:31.769Z,9.75
2022-12-11T01:36:59.421Z,11.20
2022-12-11T01:39:27.129Z,10.45
2022-12-11T01:41:59.185Z,10.70
2022-12-11T01:44:26.796Z,10.52
2022-12-11T01:46:55.079Z,9.27
2022-12-11T01:49:27.244Z,11.20
2022-12-11T01:52:08.850Z,9.93
2022-12-11T01:54:36.783Z,8.75
2022-12-11T01:57:09.221Z,10.35
2022-12-11T01:59:41.079Z,8.18
2022-12-11T02:02:15.448Z,8.77
2022-12-11T02:04:45.339Z,8.63
2022-12-11T02:07:13.212Z,8.95
2022-12-11T02:09:44.265Z,8.48
2022-12-11T02:12:23.451Z,9.07
2022-12-11T02:15:18.851Z,12.02
2022-12-11T02:18:12.865Z,11.50
2022-12-11T02:20:49.026Z,9.43
2022-12-11T02:23:54.450Z,10.13
2022-12-11T02:26:27.829Z,11.35
2022-12-11T02:28:58.486Z,10.43
2022-12-11T02:31:37.335Z,9.88
2022-12-11T02:34:33.060Z,11.70
2022-12-11T02:37:06.618Z,12.02
2022-12-11T02:39:37.632Z,11.32
2022-12-11T02:42:06.199Z,11.25
2022-12-11T02:44:35.349Z,12.43
2022-12-11T02:47:06.069Z,11.40
2022-12-11T02:49:35.108Z,13.62
2022-12-11T02:52:06.325Z,11.75
2022-12-11T02:54:38.049Z,9.55
2022-12-11T02:57:31.148Z,11.73
2022-12-11T02:59:58.843Z,9.57
2022-12-11T03:02:26.693Z,9.98
2022-12-11T03:04:55.099Z,9.98
2022-12-11T03:07:26.447Z,10.25
2022-12-11T03:09:54.682Z,10.73
2022-12-11T03:12:30.315Z,11.07
2022-12-11T03:15:01.797Z,10.00
2022-12-11T03:17:37.981Z,10.38
2022-12-11T03:20:16.113Z,11.35
2022-12-11T03:22:43.662Z,11.20
2022-12-11T03:25:18.963Z,11.65
2022-12-11T03:27:57.757Z,11.57
2022-12-11T03:30:28.141Z,9.70
2022-12-11T19:25:48.173Z,9.90
2022-12-11T19:28:16.617Z,13.25
2022-12-11T19:30:49.863Z,9.07
2022-12-11T19:33:18.068Z,11.12
2022-12-11T19:35:46.160Z,11.80
2022-12-11T19:38:14.454Z,10.45
2022-12-11T19:40:46.228Z,10.65
2022-12-11T19:43:13.833Z,10.13
2022-12-11T19:45:42.636Z,10.25
2022-12-11T19:48:10.371Z,9.68
2022-12-11T19:50:38.102Z,10.43
2022-12-11T19:53:05.824Z,11.55
2022-12-11T19:55:34.091Z,10.20
2022-12-11T19:58:01.789Z,9.80
2022-12-11T20:00:29.655Z,10.63
2022-12-11T20:02:57.389Z,12.05
2022-12-11T20:05:25.213Z,8.95
2022-12-11T20:07:53.519Z,9.10
2022-12-11T20:10:21.284Z,10.90
2022-12-11T20:12:49.158Z,10.80
2022-12-11T20:15:20.655Z,10.57
2022-12-11T20:17:48.452Z,13.80
2022-12-11T20:20:16.145Z,13.35
2022-12-11T20:22:43.761Z,14.35
2022-12-11T20:25:11.693Z,14.13
2022-12-11T20:27:40.150Z,11.57
2022-12-11T20:30:08.333Z,11.75
2022-12-11T20:32:38.022Z,13.23
2022-12-11T20:35:07.271Z,10.52
2022-12-11T20:37:36.019Z,10.65
2022-12-11T20:40:05.317Z,11.10
2022-12-11T20:42:34.971Z,9.55
2022-12-11T20:45:02.675Z,11.10
2022-12-11T20:47:30.383Z,10.98
2022-12-11T20:49:58.053Z,10.48
2022-12-11T20:52:25.727Z,12.20
2022-12-11T20:54:53.511Z,11.55
2022-12-11T20:57:21.476Z,11.45
2022-12-11T20:59:50.622Z,10.77
2022-12-11T21:02:18.491Z,11.12
2022-12-11T21:04:46.193Z,10.63
2022-12-11T21:07:13.852Z,11.25
2022-12-11T21:09:41.583Z,8.20
2022-12-11T21:12:09.717Z,8.82
2022-12-11T21:14:37.438Z,9.13
2022-12-11T21:17:05.201Z,10.80
2022-12-11T21:19:33.269Z,10.48
2022-12-11T21:22:01.035Z,11.52
2022-12-11T21:24:30.141Z,10.63
2022-12-11T21:26:59.364Z,10.77
2022-12-11T21:29:30.383Z,8.00
2022-12-11T21:31:59.079Z,12.10
2022-12-11T21:34:27.255Z,13.77
2022-12-11T21:36:57.705Z,12.37
2022-12-11T21:39:27.219Z,13.07
2022-12-11T21:41:55.062Z,12.37
2022-12-11T21:47:10.971Z,14.30
2022-12-11T21:49:38.839Z,16.83
2022-12-11T21:52:06.587Z,16.65
2022-12-11T21:54:34.216Z,13.50
2022-12-11T21:57:01.953Z,13.05
2022-12-11T21:59:30.887Z,15.70
2022-12-11T22:01:58.736Z,12.05
2022-12-11T22:04:26.418Z,14.63
2022-12-11T22:06:54.491Z,13.80
2022-12-11T22:09:22.165Z,13.05
2022-12-11T22:11:53.805Z,14.48
2022-12-11T22:14:25.876Z,12.70
2022-12-11T22:16:53.588Z,13.73
2022-12-11T22:19:21.350Z,13.35
2022-12-11T22:21:49.033Z,12.23
2022-12-11T22:24:16.836Z,12.27
2022-12-11T22:26:44.442Z,11.70
2022-12-11T22:29:12.262Z,12.88
2022-12-11T22:31:40.009Z,11.35
2022-12-11T22:34:07.714Z,11.75
2022-12-11T22:36:35.357Z,11.68
2022-12-11T22:39:03.107Z,14.82
2022-12-11T22:41:32.763Z,13.80
2022-12-11T22:44:00.851Z,12.52
2022-12-11T22:46:30.617Z,12.05
2022-12-11T22:48:59.802Z,11.18
2022-12-11T22:51:27.611Z,10.45
2022-12-11T22:53:55.246Z,10.98
2022-12-11T22:56:22.874Z,10.55
2022-12-11T22:58:50.845Z,13.25
2022-12-11T23:01:22.546Z,13.52
2022-12-11T23:03:50.699Z,12.50
2022-12-11T23:06:21.291Z,13.32
2022-12-11T23:08:49.061Z,10.23
2022-12-11T23:11:25.132Z,10.27
2022-12-11T23:13:53.629Z,12.60
2022-12-11T23:16:22.853Z,11.20
2022-12-11T23:18:50.873Z,13.23
2022-12-11T23:21:18.762Z,12.77
2022-12-11T23:23:46.696Z,13.05
2022-12-11T23:26:15.784Z,11.10
2022-12-11T23:28:43.569Z,10.27
2022-12-11T23:31:11.623Z,12.13
2022-12-11T23:33:39.806Z,12.07
2022-12-11T23:36:08.017Z,10.75
2022-12-11T23:38:35.805Z,11.95
2022-12-11T23:41:05.018Z,13.10
2022-12-11T23:43:32.899Z,10.68
2022-12-11T23:46:00.699Z,10.88
2022-12-11T23:48:28.366Z,11.18
2022-12-11T23:51:01.223Z,11.85
2022-12-11T23:53:29.360Z,11.40
2022-12-11T23:55:57.421Z,12.30
2022-12-11T23:58:25.108Z,11.88
